^^
Datos históricos de la estación: Murcia-Puente Tocinos
Diario Informe para Mayo 08, 2021 Unidades:  Métrico    Ingés   Ambas
Diario Semanal Mensual Anual
  Máxima: Mínima: Promedio:
Temperatura: 25.1 °C 15.6 °C 20.8 °C
Punto de rocio: 14.6 °C 9.4 °C 12.3 °C
Humedad: 75% 43.4% 59%
Velocidad viento: 23.3km/h 0km/h 9.2km/h
Racha viento: 38.9km/h - -
Viento- - Este
Presión: 1017.2 hPa 1011.0 hPa -
Precipitación: 0.0 mm    
 
 
Tabla de datos para Mayo 08, 2021
Hora Temperatura Punto de rocio Presión Viento Velocidad viento Racha viento Humedad Intensidad lluvia(por hora) Nubes
00:04 19.7 °C 12.5 °C 1016.8 hPa NNE 8.7 km/h 12.9 km/h 63% 0.0 mm
00:09 19.6 °C 12.5 °C 1016.8 hPa NNE 7.7 km/h 11.3 km/h 63.3% 0.0 mm
00:14 19.6 °C 12.6 °C 1016.9 hPa North 6.9 km/h 11.3 km/h 64% 0.0 mm
00:15 19.5 °C 12.5 °C 1016.9 hPa North 7.1 km/h 8 km/h 64% 0.0 mm
00:24 19.4 °C 12.6 °C 1016.9 hPa North 5 km/h 8 km/h 64.8% 0.0 mm
00:29 19.3 °C 12.6 °C 1016.9 hPa NNO 4.8 km/h 7.4 km/h 65% 0.0 mm
00:34 19.3 °C 12.6 °C 1016.8 hPa NNO 4.7 km/h 8 km/h 65% 0.0 mm
00:39 19.3 °C 12.7 °C 1016.8 hPa NO 4.7 km/h 7.6 km/h 65.5% 0.0 mm
00:44 19.2 °C 12.7 °C 1016.8 hPa NO 4.7 km/h 8 km/h 66% 0.0 mm
00:49 19.2 °C 12.7 °C 1016.8 hPa NO 4.2 km/h 8 km/h 66% 0.0 mm
00:54 19.2 °C 12.7 °C 1016.8 hPa NNO 3.9 km/h 8 km/h 66.2% 0.0 mm
00:59 19.1 °C 12.9 °C 1016.8 hPa NNO 3.9 km/h 7.4 km/h 67% 0.0 mm
01:04 19.1 °C 12.8 °C 1016.8 hPa NO 3.9 km/h 8 km/h 67% 0.0 mm
01:09 19.1 °C 12.8 °C 1016.8 hPa NNO 3.3 km/h 5.6 km/h 67% 0.0 mm
01:14 19.1 °C 12.8 °C 1016.8 hPa North 2.9 km/h 5.6 km/h 67% 0.0 mm
01:19 19.1 °C 12.8 °C 1016.8 hPa ENE 2.9 km/h 7.4 km/h 67% 0.0 mm
01:24 19.1 °C 12.8 °C 1016.8 hPa NE 2.9 km/h 8 km/h 67% 0.0 mm
01:29 19.1 °C 13 °C 1016.8 hPa NNE 4 km/h 8 km/h 68% 0.0 mm
01:34 19 °C 12.9 °C 1016.8 hPa North 4.7 km/h 8 km/h 68% 0.0 mm
01:39 18.9 °C 13 °C 1016.8 hPa NE 4.2 km/h 7.4 km/h 68.4% 0.0 mm
01:44 18.8 °C 13 °C 1016.8 hPa NE 3.9 km/h 8 km/h 69% 0.0 mm
01:49 18.7 °C 12.9 °C 1016.8 hPa NE 3.9 km/h 7.4 km/h 69% 0.0 mm
01:54 18.6 °C 12.8 °C 1016.8 hPa NE 3.9 km/h 8 km/h 69% 0.0 mm
01:59 18.6 °C 12.8 °C 1016.8 hPa NE 3.9 km/h 6.4 km/h 69% 0.0 mm
02:04 18.5 °C 12.5 °C 1016.6 hPa NE 3.9 km/h 4.8 km/h 68% 0.0 mm
02:09 18.5 °C 12.7 °C 1016.6 hPa NE 1.5 km/h 7.6 km/h 68.7% 0.0 mm
02:14 18.4 °C 12.8 °C 1016.6 hPa Calm   8 km/h 69.8% 0.0 mm
02:19 18.4 °C 12.8 °C 1016.6 hPa North 1.7 km/h 8 km/h 70% 0.0 mm
02:24 18.3 °C 12.7 °C 1016.6 hPa North 2.9 km/h 5.6 km/h 70% 0.0 mm
02:29 18.2 °C 12.6 °C 1016.6 hPa North 2.9 km/h 4.7 km/h 70% 0.0 mm
02:34 18.1 °C 12.6 °C 1016.5 hPa North 2.9 km/h 5.8 km/h 70% 0.0 mm
02:39 18.1 °C 12.7 °C 1016.5 hPa North 3.5 km/h 6.4 km/h 71% 0.0 mm
02:44 17.9 °C 12.7 °C 1016.5 hPa North 3.9 km/h 5.6 km/h 71.3% 0.0 mm
02:49 17.9 °C 12.8 °C 1016.4 hPa North 3.5 km/h 5.6 km/h 72% 0.0 mm
02:54 17.8 °C 12.7 °C 1016.4 hPa North 3.2 km/h 3.9 km/h 72% 0.0 mm
02:59 17.8 °C 12.7 °C 1016.4 hPa North 2.6 km/h 3.7 km/h 72% 0.0 mm
03:04 17.7 °C 12.4 °C 1016.4 hPa ENE 2.2 km/h 5.6 km/h 71.2% 0.0 mm
03:09 17.7 °C 11.9 °C 1016.4 hPa Este 2.2 km/h 5.8 km/h 69% 0.0 mm
03:10 17.7 °C 11.7 °C 1016.4 hPa Este 2.1 km/h 6.4 km/h 68% 0.0 mm
03:15 17.7 °C 11.5 °C 1016.3 hPa Este 2.2 km/h 4.8 km/h 67% 0.0 mm
03:24 17.8 °C 11.8 °C 1016.3 hPa Este 2.9 km/h 4.8 km/h 67.8% 0.0 mm
03:29 17.9 °C 12.1 °C 1016.3 hPa NNE 2.5 km/h 3.9 km/h 69.1% 0.0 mm
03:34 17.9 °C 12.3 °C 1016.3 hPa North 2.2 km/h 3.2 km/h 69.8% 0.0 mm
03:39 17.8 °C 12.3 °C 1016.3 hPa North 1 km/h   69.9% 0.0 mm
03:44 17.8 °C 12.2 °C 1016.3 hPa Calm   3.7 km/h 69.8% 0.0 mm
03:49 17.7 °C 12.2 °C 1016.2 hPa Calm   4.7 km/h 70% 0.0 mm
03:54 17.6 °C 12.2 °C 1016.2 hPa Calm   4.8 km/h 70.6% 0.0 mm
03:59 17.4 °C 12.1 °C 1016.2 hPa NNO 1.7 km/h 5.8 km/h 71% 0.0 mm
04:04 17.3 °C 12 °C 1016.2 hPa Oeste 2.9 km/h 6.4 km/h 71% 0.0 mm
04:09 17.2 °C 11.9 °C 1016.2 hPa Oeste 2.9 km/h 5.6 km/h 71.1% 0.0 mm
04:14 17.2 °C 12.1 °C 1016.4 hPa Oeste 2.9 km/h 4.8 km/h 72% 0.0 mm
04:19 17.1 °C 12 °C 1016.4 hPa Oeste 1.3 km/h 3.7 km/h 72% 0.0 mm
04:24 17.1 °C 12 °C 1016.4 hPa Calm   3.7 km/h 72% 0.0 mm
04:29 17.1 °C 12 °C 1016.4 hPa Calm   4.7 km/h 72% 0.0 mm
04:30 17.1 °C 12 °C 1016.3 hPa Calm   4.8 km/h 72% 0.0 mm
04:39 17.1 °C 11.9 °C 1016.3 hPa Oeste 1.3 km/h 4.8 km/h 71.7% 0.0 mm
04:44 17.1 °C 11.6 °C 1016.3 hPa SSO 2.2 km/h 5.6 km/h 70.2% 0.0 mm
04:49 17.1 °C 11.3 °C 1016.2 hPa SE 2.8 km/h 5.6 km/h 68.7% 0.0 mm
04:54 17.2 °C 11.3 °C 1016.2 hPa SSE 3.2 km/h 4.8 km/h 68.5% 0.0 mm
04:59 17.2 °C 11.6 °C 1016.2 hPa OSO 3 km/h 5.8 km/h 69.8% 0.0 mm
05:04 17.2 °C 11.6 °C 1016.1 hPa Oeste 2.9 km/h 6.4 km/h 70% 0.0 mm
05:09 17.1 °C 11.6 °C 1016.1 hPa Oeste 2.5 km/h 4.8 km/h 70% 0.0 mm
05:14 17 °C 11.5 °C 1016.1 hPa Oeste 2.2 km/h 3.9 km/h 70% 0.0 mm
05:19 16.9 °C 11.5 °C 1016.0 hPa Oeste 2.2 km/h 3.9 km/h 70.4% 0.0 mm
05:24 16.8 °C 11.4 °C 1016.0 hPa Oeste 2.2 km/h 3.9 km/h 70.6% 0.0 mm
05:29 16.7 °C 11.2 °C 1016.1 hPa ONO 2.2 km/h 4.7 km/h 70% 0.0 mm
05:34 16.5 °C 11 °C 1016.1 hPa NE 2.2 km/h 4.8 km/h 70% 0.0 mm
05:39 16.4 °C 10.9 °C 1016.1 hPa NE 2.6 km/h 3.9 km/h 70% 0.0 mm
05:44 16.4 °C 10.9 °C 1016.1 hPa ESE 2.9 km/h 7.4 km/h 70% 0.0 mm
05:49 16.4 °C 10.9 °C 1016.1 hPa SE 3.1 km/h 8 km/h 70% 0.0 mm
05:54 16.3 °C 10.9 °C 1016.1 hPa SE 3.2 km/h 8 km/h 70% 0.0 mm
05:59 16.4 °C 10.8 °C 1016.1 hPa SE 3.6 km/h 8 km/h 69.8% 0.0 mm
06:04 16.4 °C 10.7 °C 1015.9 hPa SE 3.9 km/h 6.4 km/h 69.1% 0.0 mm
06:09 16.4 °C 10.7 °C 1015.9 hPa SE 3.5 km/h 6.4 km/h 69% 0.0 mm
06:14 16.4 °C 10.7 °C 1015.9 hPa SE 3.2 km/h 7.4 km/h 69% 0.0 mm
06:19 16.3 °C 10.6 °C 1015.9 hPa SE 3.6 km/h 8 km/h 69% 0.0 mm
06:24 16.2 °C 10.7 °C 1015.9 hPa SE 3.9 km/h 8 km/h 69.8% 0.0 mm
06:29 16.2 °C 10.7 °C 1016.0 hPa SE 3.3 km/h 5.6 km/h 70% 0.0 mm
06:34 16.2 °C 10.8 °C 1016.0 hPa ESE 2.9 km/h 5.6 km/h 70.5% 0.0 mm
06:39 16.1 °C 11 °C 1016.0 hPa North 2.9 km/h 5.6 km/h 71.7% 0.0 mm
06:44 15.9 °C 11 °C 1016.1 hPa North 2.9 km/h 5.6 km/h 72.6% 0.0 mm
06:49 15.8 °C 11.1 °C 1016.1 hPa NNO 2.9 km/h 4.8 km/h 73.6% 0.0 mm
06:54 15.7 °C 11.1 °C 1016.1 hPa NNO 2.9 km/h 4.8 km/h 74% 0.0 mm
06:59 15.7 °C 11 °C 1016.2 hPa NNO 2.5 km/h 3.7 km/h 74% 0.0 mm
07:04 15.6 °C 11.1 °C 1016.2 hPa NNO 2.2 km/h 3.7 km/h 74.8% 0.0 mm
07:09 15.6 °C 11.2 °C 1016.2 hPa NNO 0.8 km/h 3.2 km/h 75% 0.0 mm
07:14 15.6 °C 11.2 °C 1016.3 hPa Calm   1.9 km/h 75% 0.0 mm
07:19 15.6 °C 11.2 °C 1016.3 hPa Calm   5 km/h 74.9% 0.0 mm
07:24 15.7 °C 11 °C 1016.3 hPa Calm   5.6 km/h 74% 0.0 mm
07:29 15.7 °C 11.1 °C 1016.5 hPa Calm   4.7 km/h 74% 0.0 mm
07:34 15.8 °C 11 °C 1016.5 hPa Calm   5.6 km/h 73.2% 0.0 mm
07:39 15.8 °C 11 °C 1016.5 hPa Este 1.4 km/h 4.8 km/h 73% 0.0 mm
07:44 15.9 °C 11 °C 1016.5 hPa NNE 2.2 km/h 5.6 km/h 72.9% 0.0 mm
07:49 16.1 °C 11 °C 1016.5 hPa North 2.6 km/h 5.6 km/h 72% 0.0 mm
07:54 16.1 °C 11 °C 1016.5 hPa North 2.9 km/h 5.8 km/h 71.8% 0.0 mm
07:59 16.1 °C 11 °C 1016.7 hPa North 3.1 km/h 6.4 km/h 71.9% 0.0 mm
08:04 16.2 °C 11.2 °C 1016.7 hPa North 3.2 km/h 4.8 km/h 72% 0.0 mm
08:09 16.4 °C 11.1 °C 1016.7 hPa North 2.7 km/h 3.9 km/h 71.1% 0.0 mm
08:14 16.7 °C 11.3 °C 1016.8 hPa NNE 2.2 km/h 3.9 km/h 70.7% 0.0 mm
08:19 16.9 °C 11.2 °C 1016.8 hPa NNE 2.2 km/h 5.8 km/h 69.2% 0.0 mm
08:24 17.2 °C 11.3 °C 1016.8 hPa North 2.2 km/h 6.4 km/h 68.6% 0.0 mm
08:29 17.2 °C 11.3 °C 1016.8 hPa NNO 2.8 km/h 5.6 km/h 68.4% 0.0 mm
08:34 17.3 °C 11.5 °C 1016.8 hPa NE 3.2 km/h 5.6 km/h 68.7% 0.0 mm
08:39 17.6 °C 11.5 °C 1016.8 hPa NNO 3 km/h 4.8 km/h 67.5% 0.0 mm
08:44 17.8 °C 11.6 °C 1016.9 hPa NNO 2.9 km/h 5.8 km/h 67.4% 0.0 mm
08:49 18 °C 11.6 °C 1016.9 hPa NNO 2.5 km/h 6.4 km/h 66.2% 0.0 mm
08:54 18.2 °C 11.6 °C 1016.9 hPa NNO 2.2 km/h 6.4 km/h 65.5% 0.0 mm
08:59 18.2 °C 11.5 °C 1017.0 hPa SE 2.2 km/h 4.8 km/h 65.2% 0.0 mm
09:04 18.3 °C 11.8 °C 1017.0 hPa Este 2.2 km/h 4.7 km/h 65.7% 0.0 mm
09:09 18.6 °C 11.8 °C 1017.0 hPa North 2.6 km/h 7.4 km/h 64.7% 0.0 mm
09:14 18.8 °C 11.8 °C 1017.1 hPa NO 2.9 km/h 8 km/h 64% 0.0 mm
09:19 18.9 °C 11.9 °C 1017.1 hPa NO 3.1 km/h 6.4 km/h 63.7% 0.0 mm
09:24 19 °C 11.8 °C 1017.1 hPa NO 3.2 km/h 7.4 km/h 63% 0.0 mm
09:29 19.1 °C 11.8 °C 1017.1 hPa NE 3.2 km/h 8 km/h 63% 0.0 mm
09:34 19.2 °C 12 °C 1017.1 hPa ENE 3.2 km/h 8 km/h 62.8% 0.0 mm
09:39 19.4 °C 12 °C 1017.1 hPa NE 3.6 km/h 8.4 km/h 62% 0.0 mm
09:44 19.5 °C 12 °C 1017.2 hPa NE 3.9 km/h 11.9 km/h 61.9% 0.0 mm
09:49 19.5 °C 11.9 °C 1017.2 hPa NNE 5 km/h 11.9 km/h 61.9% 0.0 mm
09:54 19.3 °C 12 °C 1017.2 hPa NE 5.8 km/h 11.3 km/h 62.5% 0.0 mm
09:59 19.4 °C 12.2 °C 1017.2 hPa NNE 6.2 km/h 11.3 km/h 63% 0.0 mm
10:04 19.7 °C 12.4 °C 1017.2 hPa NNE 6.5 km/h 14.8 km/h 63% 0.0 mm
10:09 19.8 °C 12.6 °C 1017.2 hPa NNE 7.1 km/h 15.6 km/h 63.2% 0.0 mm
10:14 20 °C 13 °C 1017.2 hPa NNE 7.6 km/h 16.1 km/h 64% 0.0 mm
10:19 20.2 °C 13.1 °C 1017.1 hPa NNE 8.3 km/h 14.8 km/h 64.2% 0.0 mm
10:24 20.3 °C 13.4 °C 1017.1 hPa North 8.7 km/h 14.5 km/h 64.9% 0.0 mm
10:29 20.4 °C 13.5 °C 1017.1 hPa NNE 8.1 km/h 16.1 km/h 64.5% 0.0 mm
10:34 20.3 °C 13.3 °C 1017.1 hPa North 7.6 km/h 16.7 km/h 64% 0.0 mm
10:35 20.3 °C 13.3 °C 1017.1 hPa North 7.6 km/h 16.7 km/h 64% 0.0 mm
10:44 20.7 °C 13.4 °C 1017.1 hPa NNE 10 km/h 16.7 km/h 63.3% 0.0 mm
10:49 20.8 °C 13.6 °C 1016.9 hPa NNE 10 km/h 18.5 km/h 63.1% 0.0 mm
10:54 20.9 °C 13.4 °C 1016.9 hPa NNE 10 km/h 19.3 km/h 62.1% 0.0 mm
10:59 21.3 °C 13.4 °C 1016.9 hPa NE 10 km/h 16.1 km/h 61% 0.0 mm
11:04 21.8 °C 13.4 °C 1016.9 hPa NE 10 km/h 14.8 km/h 58.9% 0.0 mm
11:09 21.9 °C 13 °C 1016.9 hPa NNE 10 km/h 18.5 km/h 56.9% 0.0 mm
11:14 22.1 °C 13.2 °C 1016.9 hPa NNE 10 km/h 19.3 km/h 57.1% 0.0 mm
11:19 22.3 °C 13.1 °C 1016.8 hPa NNE 9.3 km/h 20.4 km/h 56% 0.0 mm
11:24 22.4 °C 13.3 °C 1016.8 hPa NE 8.7 km/h 20.9 km/h 56.5% 0.0 mm
11:29 22.5 °C 13.5 °C 1016.8 hPa NNE 9.4 km/h 20.4 km/h 56.7% 0.0 mm
11:34 22.7 °C 13.7 °C 1016.7 hPa NNE 10 km/h 20.9 km/h 56.9% 0.0 mm
11:39 22.8 °C 13.6 °C 1016.7 hPa NNE 11.7 km/h 20.9 km/h 56.1% 0.0 mm
11:44 23 °C 13.6 °C 1016.7 hPa NNE 13 km/h 20.1 km/h 55.7% 0.0 mm
11:49 23.2 °C 13.6 °C 1016.6 hPa NNE 11.5 km/h 20.9 km/h 54.9% 0.0 mm
11:54 23.3 °C 13.5 °C 1016.6 hPa NNE 10.3 km/h 20.9 km/h 54.3% 0.0 mm
11:59 23.3 °C 13.6 °C 1016.6 hPa North 11.5 km/h 23.7 km/h 54.6% 0.0 mm
12:04 23.3 °C 13.7 °C 1016.5 hPa NNE 12.2 km/h 24.1 km/h 54.7% 0.0 mm
12:09 23.4 °C 13.5 °C 1016.5 hPa NNE 12.7 km/h 22.5 km/h 53.6% 0.0 mm
12:14 23.7 °C 13.7 °C 1016.5 hPa NNE 13 km/h 22.2 km/h 53.4% 0.0 mm
12:19 24 °C 13.9 °C 1016.4 hPa NNE 11.5 km/h 22.5 km/h 53.5% 0.0 mm
12:24 24.4 °C 13.5 °C 1016.4 hPa NE 10.3 km/h 23.7 km/h 50.6% 0.0 mm
12:29 24.6 °C 13.3 °C 1016.4 hPa NE 11.3 km/h 24.1 km/h 49.5% 0.0 mm
12:34 24.7 °C 13.4 °C 1016.2 hPa NE 11.9 km/h 24.5 km/h 49.6% 0.0 mm
12:39 24.8 °C 13.1 °C 1016.2 hPa ENE 11.9 km/h 24.1 km/h 48.4% 0.0 mm
12:44 24.8 °C 13.2 °C 1016.2 hPa NE 11.9 km/h 21.7 km/h 48.4% 0.0 mm
12:49 24.9 °C 13.2 °C 1016.0 hPa NE 12.1 km/h 26.2 km/h 48.4% 0.0 mm
12:54 24.9 °C 13.1 °C 1016.0 hPa NE 12.2 km/h 25.7 km/h 48% 0.0 mm
12:59 24.8 °C 13.6 °C 1016.0 hPa ENE 12.7 km/h 24.1 km/h 49.9% 0.0 mm
13:04 24.9 °C 13.9 °C 1015.8 hPa NE 13 km/h 22.5 km/h 50.4% 0.0 mm
13:09 25.1 °C 13.9 °C 1015.8 hPa NE 13 km/h 29.8 km/h 49.8% 0.0 mm
13:14 24.9 °C 14 °C 1015.8 hPa NE 13 km/h 31.5 km/h 50.7% 0.0 mm
13:19 24.7 °C 14.5 °C 1015.5 hPa NE 14.7 km/h 32.2 km/h 52.9% 0.0 mm
13:24 24.8 °C 14.2 °C 1015.5 hPa NNE 16.1 km/h 27.4 km/h 51.8% 0.0 mm
13:29 24.8 °C 14.2 °C 1015.5 hPa NE 15.8 km/h 29.8 km/h 51.9% 0.0 mm
13:34 24.8 °C 14 °C 1015.3 hPa NE 15.6 km/h 30.6 km/h 51% 0.0 mm
13:39 24.8 °C 13.6 °C 1015.3 hPa NE 16.5 km/h 29 km/h 49.7% 0.0 mm
13:44 24.9 °C 13.7 °C 1015.3 hPa NNE 17.2 km/h 26.2 km/h 49.9% 0.0 mm
13:49 24.9 °C 13.7 °C 1015.0 hPa NE 15.7 km/h 29.6 km/h 49.7% 0.0 mm
13:54 24.9 °C 13.5 °C 1015.0 hPa NE 14.8 km/h 29 km/h 49.3% 0.0 mm
13:59 24.7 °C 13.7 °C 1015.0 hPa NNE 16.9 km/h 31.5 km/h 50.2% 0.0 mm
14:04 24.7 °C 14.3 °C 1015.0 hPa NNE 18 km/h 32.2 km/h 52.4% 0.0 mm
14:09 24.7 °C 14.4 °C 1015.0 hPa NE 17.6 km/h 32.2 km/h 52.7% 0.0 mm
14:14 24.7 °C 14.2 °C 1015.0 hPa NE 17.2 km/h 29 km/h 51.8% 0.0 mm
14:19 24.7 °C 14.3 °C 1014.8 hPa NE 16.5 km/h 31.5 km/h 52.5% 0.0 mm
14:24 24.7 °C 14.5 °C 1014.8 hPa NE 16.1 km/h 35.2 km/h 52.9% 0.0 mm
14:29 24.9 °C 14.4 °C 1014.8 hPa NE 16.7 km/h 35.4 km/h 52.2% 0.0 mm
14:34 25 °C 14.3 °C 1014.6 hPa NNE 17.2 km/h 30.9 km/h 51.7% 0.0 mm
14:39 24.9 °C 14.3 °C 1014.6 hPa NNE 17.6 km/h 32.2 km/h 51.6% 0.0 mm
14:44 24.8 °C 14.6 °C 1014.6 hPa NNE 18 km/h 32.2 km/h 52.9% 0.0 mm
14:49 25 °C 14.6 °C 1014.4 hPa NNE 18 km/h 34.3 km/h 52.6% 0.0 mm
14:54 25 °C 14.4 °C 1014.4 hPa NNE 18 km/h 33.8 km/h 52% 0.0 mm
14:59 24.7 °C 14.6 °C 1014.4 hPa NNE 19.3 km/h 34.3 km/h 53.2% 0.0 mm
15:04 24.6 °C 14.6 °C 1014.2 hPa NNE 20.1 km/h 37 km/h 53.6% 0.0 mm
15:09 24.5 °C 14.4 °C 1014.2 hPa NNE 21.1 km/h 37 km/h 53.1% 0.0 mm
15:14 24.6 °C 14.5 °C 1014.2 hPa NNE 21.7 km/h 34.3 km/h 53.3% 0.0 mm
15:19 24.5 °C 14.4 °C 1014.0 hPa NNE 22.7 km/h 38.9 km/h 53.1% 0.0 mm
15:24 24.6 °C 14.4 °C 1014.0 hPa NE 23.3 km/h 38.6 km/h 53.1% 0.0 mm
15:29 24.6 °C 14.1 °C 1014.0 hPa NNE 22.6 km/h 35.4 km/h 52.1% 0.0 mm
15:34 24.8 °C 14 °C 1013.8 hPa NNE 22.1 km/h 35.4 km/h 51% 0.0 mm
15:39 24.8 °C 14 °C 1013.8 hPa NE 20.2 km/h 34.6 km/h 51.1% 0.0 mm
15:44 24.7 °C 13.9 °C 1013.8 hPa NE 19 km/h 35.4 km/h 51.1% 0.0 mm
15:49 24.7 °C 13.9 °C 1013.6 hPa NE 20.5 km/h 32.2 km/h 51.1% 0.0 mm
15:54 24.6 °C 14.1 °C 1013.6 hPa NE 21.7 km/h 37.8 km/h 51.8% 0.0 mm
15:59 24.5 °C 14 °C 1013.6 hPa NE 21.9 km/h 37 km/h 52% 0.0 mm
16:04 24.6 °C 14.1 °C 1013.5 hPa NE 22.1 km/h 33.5 km/h 52% 0.0 mm
16:09 24.8 °C 14.1 °C 1013.5 hPa NE 20.2 km/h 34.6 km/h 51.3% 0.0 mm
16:14 24.8 °C 13.9 °C 1013.5 hPa NE 19 km/h 35.4 km/h 50.7% 0.0 mm
16:19 24.9 °C 13.7 °C 1013.2 hPa NNE 19 km/h 35.4 km/h 49.9% 0.0 mm
16:24 24.9 °C 13.7 °C 1013.2 hPa NE 19 km/h 33.8 km/h 49.9% 0.0 mm
16:29 25 °C 13.7 °C 1013.2 hPa NNE 19.4 km/h 33.3 km/h 49.6% 0.0 mm
16:34 24.9 °C 13.5 °C 1012.9 hPa NNE 19.8 km/h 33.8 km/h 49% 0.0 mm
16:39 25.1 °C 13.6 °C 1012.9 hPa NNE 19 km/h 35.2 km/h 48.8% 0.0 mm
16:44 24.9 °C 13.2 °C 1012.9 hPa NNE 18.4 km/h 35.4 km/h 48.2% 0.0 mm
16:49 25 °C 13.3 °C 1012.8 hPa NNE 18.2 km/h 33.3 km/h 48.2% 0.0 mm
16:54 25 °C 13.1 °C 1012.8 hPa NE 18 km/h 33.8 km/h 47.7% 0.0 mm
16:59 24.9 °C 13 °C 1012.8 hPa NNE 18.6 km/h 30.6 km/h 47.5% 0.0 mm
17:04 25.1 °C 13.1 °C 1012.5 hPa NE 19 km/h 30.6 km/h 47.2% 0.0 mm
17:09 25 °C 12.9 °C 1012.5 hPa NE 18 km/h 30.6 km/h 47% 0.0 mm
17:14 24.8 °C 12.9 °C 1012.5 hPa NNE 17.2 km/h 35.2 km/h 47.4% 0.0 mm
17:19 24.7 °C 12.8 °C 1012.5 hPa NE 19 km/h 35.4 km/h 47.6% 0.0 mm
17:24 24.7 °C 12.6 °C 1012.5 hPa NNE 20.1 km/h 31.7 km/h 47% 0.0 mm
17:29 24.7 °C 12.7 °C 1012.5 hPa NNE 19.9 km/h 35.9 km/h 47.3% 0.0 mm
17:34 24.7 °C 12.6 °C 1012.3 hPa NNE 19.8 km/h 35.4 km/h 47% 0.0 mm
17:39 24.7 °C 12.8 °C 1012.3 hPa NNE 17.9 km/h 30.6 km/h 47.7% 0.0 mm
17:44 24.4 °C 12.7 °C 1012.3 hPa NNE 16.4 km/h 29 km/h 47.9% 0.0 mm
17:49 24.4 °C 12.6 °C 1012.3 hPa NE 17.3 km/h 28.2 km/h 47.8% 0.0 mm
17:54 24.3 °C 12.5 °C 1012.3 hPa NNE 18 km/h 29.6 km/h 47.8% 0.0 mm
17:59 24.2 °C 12.8 °C 1012.3 hPa NE 18.2 km/h 30.6 km/h 48.8% 0.0 mm
18:04 24.1 °C 12.6 °C 1012.2 hPa NE 18.4 km/h 31.5 km/h 48.6% 0.0 mm
18:09 24.1 °C 12.3 °C 1012.2 hPa NE 19.5 km/h 32.2 km/h 47.9% 0.0 mm
18:14 24.1 °C 12.4 °C 1012.2 hPa NE 20.1 km/h 31.5 km/h 47.9% 0.0 mm
18:19 24.1 °C 12.2 °C 1012.0 hPa NNE 20.1 km/h 28.2 km/h 47.4% 0.0 mm
18:24 24 °C 12.3 °C 1012.0 hPa NE 20.1 km/h 27.8 km/h 47.9% 0.0 mm
18:29 23.8 °C 12.1 °C 1012.0 hPa NNE 17.7 km/h 29.8 km/h 47.9% 0.0 mm
18:34 23.7 °C 12 °C 1012.0 hPa NE 16.1 km/h 30.6 km/h 47.9% 0.0 mm
18:39 23.7 °C 12.2 °C 1012.0 hPa NE 16.8 km/h 29 km/h 48.4% 0.0 mm
18:44 23.7 °C 12.3 °C 1012.0 hPa NE 17.2 km/h 28.2 km/h 49% 0.0 mm
18:49 23.7 °C 12.3 °C 1011.9 hPa NE 17.2 km/h 27.4 km/h 49% 0.0 mm
18:54 23.7 °C 12.2 °C 1011.9 hPa NNE 17.2 km/h 26.2 km/h 48.6% 0.0 mm
18:59 23.7 °C 12 °C 1011.9 hPa NE 16.2 km/h 26.2 km/h 47.7% 0.0 mm
19:04 23.7 °C 11.9 °C 1011.9 hPa NE 15.6 km/h 29.6 km/h 47.5% 0.0 mm
19:09 23.7 °C 11.6 °C 1011.9 hPa NE 16.9 km/h 29 km/h 46.9% 0.0 mm
19:14 23.5 °C 11.5 °C 1011.9 hPa NE 18 km/h 27.4 km/h 46.9% 0.0 mm
19:19 23.4 °C 11.4 °C 1011.7 hPa NNE 16.5 km/h 25.7 km/h 46.9% 0.0 mm
19:24 23.4 °C 11.3 °C 1011.7 hPa NNE 15.6 km/h 24.1 km/h 46.5% 0.0 mm
19:29 23.3 °C 11.3 °C 1011.7 hPa NE 14.7 km/h 24.5 km/h 46.9% 0.0 mm
19:34 23.2 °C 11.7 °C 1011.4 hPa NE 14 km/h 24.1 km/h 48.6% 0.0 mm
19:39 23.1 °C 12 °C 1011.4 hPa NE 13 km/h 22.5 km/h 49.8% 0.0 mm
19:44 23.1 °C 12.1 °C 1011.4 hPa NE 12.2 km/h 20.9 km/h 50% 0.0 mm
19:49 22.9 °C 11.4 °C 1011.4 hPa NNE 11.5 km/h 20.9 km/h 48.4% 0.0 mm
19:54 22.9 °C 11 °C 1011.4 hPa NNE 11.1 km/h 20.9 km/h 47.2% 0.0 mm
19:59 22.9 °C 10.7 °C 1011.4 hPa NNE 11.8 km/h 18.5 km/h 46.2% 0.0 mm
20:04 22.8 °C 10.5 °C 1011.3 hPa NNE 12.2 km/h 22 km/h 45.8% 0.0 mm
20:09 22.8 °C 10.1 °C 1011.3 hPa NE 12.7 km/h 22.5 km/h 44.6% 0.0 mm
20:14 22.7 °C 9.6 °C 1011.3 hPa NNE 13 km/h 25.9 km/h 43.4% 0.0 mm
20:19 22.6 °C 9.5 °C 1011.1 hPa NE 14.7 km/h 25.7 km/h 43.4% 0.0 mm
20:24 22.6 °C 9.7 °C 1011.1 hPa NNE 15.6 km/h 20.9 km/h 44% 0.0 mm
20:29 22.4 °C 9.9 °C 1011.1 hPa NNE 13.7 km/h 20.9 km/h 44.9% 0.0 mm
20:34 22.3 °C 10 °C 1011.1 hPa NE 12.2 km/h 20.4 km/h 45.5% 0.0 mm
20:39 22.3 °C 9.8 °C 1011.1 hPa NE 11.5 km/h 20.9 km/h 45.3% 0.0 mm
20:44 22.2 °C 9.7 °C 1011.1 hPa NE 11.1 km/h 19.3 km/h 45% 0.0 mm
20:49 22.1 °C 9.6 °C 1011.1 hPa NE 9.7 km/h 19.3 km/h 45% 0.0 mm
20:54 22.1 °C 9.6 °C 1011.1 hPa NE 8.7 km/h 11.3 km/h 45% 0.0 mm
20:59 21.9 °C 9.5 °C 1011.1 hPa NE 7.3 km/h 10.3 km/h 45% 0.0 mm
21:04 21.8 °C 9.5 °C 1011.1 hPa NE 6.5 km/h 11.3 km/h 45.4% 0.0 mm
21:09 21.7 °C 9.6 °C 1011.1 hPa NNE 6.8 km/h 11.3 km/h 46% 0.0 mm
21:14 21.7 °C 9.5 °C 1011.1 hPa NE 6.9 km/h 11.9 km/h 46% 0.0 mm
21:19 21.6 °C 9.5 °C 1011.1 hPa NE 6.3 km/h 11.3 km/h 46% 0.0 mm
21:24 21.6 °C 9.5 °C 1011.1 hPa NE 5.8 km/h 9.7 km/h 46% 0.0 mm
21:29 21.5 °C 9.4 °C 1011.1 hPa NE 5.8 km/h 10 km/h 46.1% 0.0 mm
21:30 21.5 °C 9.7 °C 1011.0 hPa NNE 5.7 km/h 9.7 km/h 47% 0.0 mm
Murcia-Puente Tocinos, España
Compliments of Weather Underground - 2.75 mb

La estación de MeteoMurcia.com, publica sus datos en los siguientes proyectos:

Weather Underground PWS IMURCIAP2 Meteoclimatic www.awekas.at

W3Counter
Web Analytics